createdAt,value
2022-08-19T00:02:11.699Z,4.80
2022-08-19T00:05:15.402Z,4.70
2022-08-19T00:08:18.954Z,4.95
2022-08-19T00:11:25.777Z,4.70
2022-08-19T00:14:30.173Z,4.85
2022-08-19T00:17:31.657Z,4.30
2022-08-19T00:20:33.123Z,4.82
2022-08-19T00:23:35.821Z,4.80
2022-08-19T00:26:38.053Z,4.90
2022-08-19T00:29:39.506Z,4.20
2022-08-19T00:32:41.219Z,4.60
2022-08-19T00:35:42.871Z,4.68
2022-08-19T00:38:44.855Z,5.78
2022-08-19T00:41:48.440Z,5.10
2022-08-19T00:44:51.412Z,5.65
2022-08-19T00:47:53.303Z,4.88
2022-08-19T00:50:56.427Z,5.32
2022-08-19T00:53:59.618Z,5.20
2022-08-19T00:57:04.423Z,5.20
2022-08-19T01:00:14.345Z,5.20
2022-08-19T01:03:19.661Z,5.30
2022-08-19T01:06:21.582Z,5.28
2022-08-19T01:09:23.110Z,5.15
2022-08-19T01:12:24.770Z,5.03
2022-08-19T01:15:33.289Z,5.00
2022-08-19T01:18:39.776Z,5.35
2022-08-19T01:21:56.502Z,5.00
2022-08-19T01:24:58.180Z,5.25
2022-08-19T01:28:06.419Z,5.47
2022-08-19T01:31:27.238Z,5.78
2022-08-19T01:34:29.271Z,5.18
2022-08-19T01:37:42.056Z,4.68
2022-08-19T01:40:43.635Z,5.50
2022-08-19T01:44:03.165Z,5.05
2022-08-19T01:47:08.985Z,5.60
2022-08-19T01:50:11.936Z,5.28
2022-08-19T01:53:13.410Z,5.35
2022-08-19T01:56:15.379Z,4.97
2022-08-19T01:59:21.393Z,5.35
2022-08-19T02:02:22.804Z,5.20
2022-08-19T02:05:24.677Z,5.90
2022-08-19T02:08:28.128Z,5.50
2022-08-19T02:11:34.291Z,5.72
2022-08-19T02:14:37.145Z,4.97
2022-08-19T02:17:40.095Z,5.38
2022-08-19T02:20:43.661Z,5.65
2022-08-19T02:23:46.239Z,5.57
2022-08-19T02:26:47.727Z,6.20
2022-08-19T02:29:50.551Z,5.68
2022-08-19T02:32:52.765Z,5.47
2022-08-19T02:35:54.202Z,5.43
2022-08-19T02:38:55.949Z,4.78
2022-08-19T02:42:00.641Z,4.60
2022-08-19T02:45:02.097Z,4.75
2022-08-19T02:48:05.744Z,5.38
2022-08-19T02:51:28.771Z,4.78
2022-08-19T02:54:30.298Z,4.85
2022-08-19T02:57:32.717Z,5.35
2022-08-19T03:00:34.239Z,4.85
2022-08-19T03:03:41.077Z,4.60
2022-08-19T03:06:46.199Z,5.15
2022-08-19T03:09:47.647Z,5.28
2022-08-19T03:13:07.221Z,4.47
2022-08-19T03:16:08.614Z,4.70
2022-08-19T03:19:10.166Z,4.97
2022-08-19T03:22:11.736Z,4.97
2022-08-19T03:25:13.366Z,4.75
2022-08-19T03:28:15.833Z,4.50
2022-08-19T03:31:43.517Z,5.05
2022-08-19T03:34:41.719Z,5.07
2022-08-19T03:37:43.190Z,5.65
2022-08-19T03:40:44.719Z,4.65
2022-08-19T03:43:50.610Z,5.38
2022-08-19T03:46:59.629Z,5.28
2022-08-19T03:50:01.207Z,5.90
2022-08-19T03:53:02.697Z,5.30
2022-08-19T03:56:04.319Z,5.15
2022-08-19T03:59:10.216Z,5.38
2022-08-19T04:02:13.024Z,5.53
2022-08-19T04:05:15.842Z,4.82
2022-08-19T04:08:21.007Z,5.18
2022-08-19T04:11:43.842Z,5.35
2022-08-19T04:14:46.598Z,4.40
2022-08-19T04:17:47.992Z,5.72
2022-08-19T04:20:50.646Z,4.95
2022-08-19T04:23:52.488Z,4.65
2022-08-19T04:26:57.423Z,4.93
2022-08-19T04:29:58.857Z,5.22
2022-08-19T04:33:00.287Z,4.82
2022-08-19T04:36:01.745Z,5.13
2022-08-19T04:39:09.438Z,4.60
2022-08-19T04:42:30.589Z,5.00
2022-08-19T04:45:39.552Z,4.60
2022-08-19T04:48:49.473Z,4.72
2022-08-19T04:51:54.877Z,5.63
2022-08-19T04:54:56.393Z,4.65
2022-08-19T04:57:57.799Z,4.45
2022-08-19T05:01:01.007Z,5.35
2022-08-19T05:04:05.722Z,4.20
2022-08-19T05:07:09.224Z,4.93
2022-08-19T05:10:11.215Z,4.57
2022-08-19T05:13:12.757Z,4.55
2022-08-19T05:16:16.135Z,5.05
2022-08-19T05:19:36.247Z,4.80
2022-08-19T05:22:38.210Z,4.78
2022-08-19T05:25:41.106Z,5.13
2022-08-19T05:28:43.135Z,4.38
2022-08-19T05:31:45.843Z,5.50
2022-08-19T05:34:47.363Z,4.85
2022-08-19T05:37:48.856Z,5.63
2022-08-19T05:40:56.431Z,4.72
2022-08-19T05:43:59.237Z,5.10
2022-08-19T05:47:03.068Z,5.78
2022-08-19T05:50:05.336Z,5.53
2022-08-19T05:53:07.126Z,5.32
2022-08-19T05:56:11.722Z,5.43
2022-08-19T05:59:13.224Z,4.95
2022-08-19T06:02:15.331Z,5.40
2022-08-19T06:05:16.875Z,5.05
2022-08-19T06:08:19.273Z,5.35
2022-08-19T06:11:36.485Z,5.00
2022-08-19T06:14:41.881Z,5.57
2022-08-19T06:17:45.391Z,4.72
2022-08-19T06:20:55.982Z,5.05
2022-08-19T06:23:58.400Z,5.60
2022-08-19T06:27:01.646Z,5.60
2022-08-19T06:30:05.447Z,5.15
2022-08-19T06:33:06.885Z,4.88
2022-08-19T06:36:09.411Z,4.88
2022-08-19T06:39:14.814Z,4.93
2022-08-19T06:42:19.403Z,4.88
2022-08-19T06:45:25.144Z,4.25
2022-08-19T06:48:44.991Z,4.70
2022-08-19T06:51:48.658Z,5.28
2022-08-19T06:54:56.493Z,4.75
2022-08-19T06:57:58.392Z,4.63
2022-08-19T07:01:07.100Z,4.75
2022-08-19T07:04:12.081Z,4.97
2022-08-19T07:07:20.000Z,4.55
2022-08-19T07:10:22.641Z,5.03
2022-08-19T07:13:27.548Z,5.07
2022-08-19T07:16:30.114Z,4.88
2022-08-19T07:19:32.665Z,4.53
2022-08-19T07:22:35.471Z,4.70
2022-08-19T07:25:38.302Z,4.75
2022-08-19T07:28:40.314Z,4.68
2022-08-19T07:31:53.690Z,5.03
2022-08-19T07:34:57.113Z,4.22
2022-08-19T07:38:00.151Z,4.45
2022-08-19T07:41:02.125Z,4.78
2022-08-19T07:44:06.269Z,4.35
2022-08-19T07:47:07.923Z,4.18
2022-08-19T07:50:29.689Z,3.97
2022-08-19T07:53:36.702Z,4.28
2022-08-19T07:56:41.065Z,3.65
2022-08-19T07:59:42.610Z,3.63
2022-08-19T08:02:44.131Z,4.18
2022-08-19T08:06:04.998Z,3.70
2022-08-19T08:09:13.365Z,3.80
2022-08-19T08:12:35.180Z,3.45
2022-08-19T08:15:42.560Z,3.40
2022-08-19T08:18:50.654Z,3.80
2022-08-19T08:21:58.405Z,4.13
2022-08-19T08:25:05.024Z,3.28
2022-08-19T08:28:11.362Z,3.70
2022-08-19T08:31:22.492Z,2.90
2022-08-19T08:34:24.143Z,3.67
2022-08-19T08:37:25.611Z,3.28
2022-08-19T08:41:07.229Z,3.47
2022-08-19T08:44:20.132Z,2.78
2022-08-19T08:47:25.796Z,2.58
2022-08-19T08:50:39.113Z,2.90
2022-08-19T08:53:43.270Z,2.78
2022-08-19T08:56:48.781Z,2.38
2022-08-19T08:59:56.971Z,2.53
2022-08-19T09:03:02.699Z,2.33
2022-08-19T09:06:32.100Z,2.33
2022-08-19T09:09:40.484Z,2.60
2022-08-19T09:12:46.650Z,2.40
2022-08-19T09:15:55.991Z,3.10
2022-08-19T09:19:03.611Z,2.30
2022-08-19T09:22:08.595Z,2.63
2022-08-19T09:28:27.032Z,2.20
2022-08-19T09:31:31.043Z,2.67
2022-08-19T09:34:37.761Z,2.80
2022-08-19T09:37:40.409Z,1.77
2022-08-19T09:40:42.009Z,2.08
2022-08-19T09:43:48.019Z,2.00
2022-08-19T09:46:50.175Z,2.20
2022-08-19T09:49:51.689Z,1.92
2022-08-19T09:52:57.772Z,1.77
2022-08-19T09:55:59.342Z,1.98
2022-08-19T09:59:02.629Z,2.05
2022-08-19T10:02:10.821Z,1.40
2022-08-19T10:05:31.396Z,1.80
2022-08-19T10:08:37.379Z,2.22
2022-08-19T10:11:49.862Z,1.55
2022-08-19T10:14:55.454Z,1.65
2022-08-19T10:17:57.039Z,1.73
2022-08-19T10:21:12.555Z,1.52
2022-08-19T10:24:14.125Z,1.98
2022-08-19T10:27:16.571Z,1.80
2022-08-19T10:30:18.901Z,1.58
2022-08-19T10:33:38.949Z,1.98
2022-08-19T10:36:56.508Z,1.60
2022-08-19T10:40:03.199Z,1.98
2022-08-19T10:43:04.849Z,1.95
2022-08-19T10:46:13.713Z,2.30
2022-08-19T10:49:15.941Z,1.95
2022-08-19T10:52:38.939Z,1.90
2022-08-19T10:55:59.363Z,2.08
2022-08-19T10:59:00.999Z,1.95
2022-08-19T11:02:05.314Z,2.28
2022-08-19T11:05:12.726Z,2.00
2022-08-19T11:08:23.061Z,1.90
2022-08-19T11:11:25.582Z,2.30
2022-08-19T11:14:27.116Z,2.55
2022-08-19T11:17:33.955Z,2.28
2022-08-19T11:20:35.582Z,2.05
2022-08-19T11:23:37.144Z,2.00
2022-08-19T11:26:40.013Z,2.80
2022-08-19T11:29:41.682Z,2.03
2022-08-19T11:32:47.260Z,2.65
2022-08-19T11:35:50.800Z,1.60
2022-08-19T11:38:52.924Z,2.45
2022-08-19T11:41:54.409Z,2.40
2022-08-19T11:44:55.929Z,2.08
2022-08-19T11:47:58.077Z,2.10
2022-08-19T11:51:00.146Z,2.38
2022-08-19T11:54:02.372Z,3.40
2022-08-19T11:57:04.915Z,3.45
2022-08-19T12:00:08.118Z,3.95
2022-08-19T12:06:29.633Z,4.05
2022-08-19T12:09:32.697Z,3.30
2022-08-19T12:12:34.401Z,3.47
2022-08-19T12:15:41.678Z,3.90
2022-08-19T12:18:47.384Z,3.92
2022-08-19T12:21:48.996Z,4.05
2022-08-19T12:24:53.150Z,3.40
2022-08-19T12:27:57.649Z,3.50
2022-08-19T12:30:59.386Z,3.63
2022-08-19T12:34:01.481Z,3.92
2022-08-19T12:37:05.886Z,3.47
2022-08-19T12:40:08.173Z,3.33
2022-08-19T12:43:09.798Z,3.80
2022-08-19T12:46:12.439Z,3.13
2022-08-19T12:49:30.422Z,2.83
2022-08-19T12:52:38.121Z,2.78
2022-08-19T12:55:39.686Z,2.40
2022-08-19T12:58:42.650Z,2.67
2022-08-19T13:01:50.692Z,2.70
2022-08-19T13:04:52.256Z,2.70
2022-08-19T13:07:57.079Z,2.28
2022-08-19T13:10:59.204Z,2.13
2022-08-19T13:14:02.885Z,2.33
2022-08-19T13:17:04.580Z,1.70
2022-08-19T13:20:09.368Z,1.63
2022-08-19T13:23:11.126Z,1.65
2022-08-19T13:26:13.822Z,1.90
2022-08-19T13:29:34.012Z,1.92
2022-08-19T13:32:53.862Z,2.00
2022-08-19T13:36:01.293Z,1.85
2022-08-19T13:39:04.267Z,1.67
2022-08-19T13:42:07.082Z,2.00
2022-08-19T13:45:09.905Z,1.70
2022-08-19T13:48:11.606Z,1.63
2022-08-19T13:51:13.019Z,2.13
2022-08-19T13:54:14.560Z,1.80
2022-08-19T13:57:16.033Z,1.52
2022-08-19T14:00:19.187Z,1.58
2022-08-19T14:03:20.629Z,1.83
2022-08-19T14:06:23.252Z,1.75
2022-08-19T14:09:24.780Z,1.40
2022-08-19T14:12:28.416Z,1.95
2022-08-19T14:15:31.243Z,1.80
2022-08-19T14:18:32.709Z,1.95
2022-08-19T14:21:36.556Z,2.13
2022-08-19T14:24:41.288Z,2.28
2022-08-19T14:27:49.734Z,1.83
2022-08-19T14:30:51.256Z,1.80
2022-08-19T14:33:58.052Z,1.88
2022-08-19T14:36:59.584Z,2.17
2022-08-19T14:40:04.861Z,1.83
2022-08-19T14:43:06.471Z,1.40
2022-08-19T14:46:08.907Z,1.60
2022-08-19T14:49:12.151Z,1.58
2022-08-19T14:52:13.695Z,1.92
2022-08-19T14:55:17.557Z,1.65
2022-08-19T15:01:32.095Z,1.70
2022-08-19T15:04:33.913Z,1.60
2022-08-19T15:07:36.807Z,1.60
2022-08-19T15:10:41.447Z,1.50
2022-08-19T15:13:44.982Z,1.67
2022-08-19T15:16:46.411Z,1.77
2022-08-19T15:19:47.948Z,1.80
2022-08-19T15:22:50.097Z,1.80
2022-08-19T15:25:55.789Z,1.83
2022-08-19T15:28:58.446Z,1.63
2022-08-19T15:31:59.881Z,1.90
2022-08-19T15:35:04.616Z,1.80
2022-08-19T15:38:06.512Z,1.67
2022-08-19T15:41:37.095Z,1.98
2022-08-19T15:44:39.092Z,1.40
2022-08-19T15:47:41.340Z,1.63
2022-08-19T15:50:44.140Z,1.75
2022-08-19T15:53:45.971Z,1.27
2022-08-19T15:57:07.613Z,1.38
2022-08-19T16:00:28.191Z,1.25
2022-08-19T16:03:48.093Z,1.65
2022-08-19T16:06:57.053Z,1.50
2022-08-19T16:09:58.507Z,1.40
2022-08-19T16:13:20.233Z,1.50
2022-08-19T16:16:24.034Z,1.58
2022-08-19T16:19:33.300Z,1.67
2022-08-19T16:22:34.999Z,1.98
2022-08-19T16:25:36.515Z,1.33
2022-08-19T16:28:38.331Z,1.88
2022-08-19T16:31:42.131Z,1.60
2022-08-19T16:34:43.655Z,1.52
2022-08-19T16:37:45.597Z,1.70
2022-08-19T16:40:53.870Z,1.70
2022-08-19T16:43:55.761Z,1.65
2022-08-19T16:46:59.640Z,1.80
2022-08-19T16:50:01.625Z,1.83
2022-08-19T16:53:03.751Z,1.63
2022-08-19T16:56:05.500Z,1.73
2022-08-19T16:59:06.973Z,1.85
2022-08-19T17:02:08.492Z,1.98
2022-08-19T17:05:11.945Z,1.80
2022-08-19T17:08:16.826Z,1.85
2022-08-19T17:11:19.811Z,1.63
2022-08-19T17:14:21.940Z,2.00
2022-08-19T17:17:28.321Z,1.92
2022-08-19T17:20:31.637Z,1.73
2022-08-19T17:23:43.168Z,2.08
2022-08-19T17:26:45.756Z,1.80
2022-08-19T17:29:47.348Z,2.00
2022-08-19T17:32:49.022Z,2.53
2022-08-19T17:35:50.630Z,2.05
2022-08-19T17:38:55.178Z,1.67
2022-08-19T17:41:57.030Z,1.83
2022-08-19T17:45:05.287Z,1.90
2022-08-19T17:48:07.277Z,2.03
2022-08-19T17:51:24.515Z,1.88
2022-08-19T17:54:31.845Z,1.75
2022-08-19T17:57:35.488Z,1.60
2022-08-19T18:00:37.044Z,2.10
2022-08-19T18:03:54.180Z,1.85
2022-08-19T18:06:56.639Z,2.30
2022-08-19T18:09:58.748Z,2.15
2022-08-19T18:13:17.096Z,2.10
2022-08-19T18:16:20.779Z,2.08
2022-08-19T18:19:24.135Z,1.95
2022-08-19T18:22:36.263Z,2.30
2022-08-19T18:25:41.953Z,2.33
2022-08-19T18:28:49.936Z,2.17
2022-08-19T18:31:51.633Z,2.15
2022-08-19T18:34:55.290Z,2.22
2022-08-19T18:37:59.699Z,2.10
2022-08-19T18:41:20.892Z,1.70
2022-08-19T18:44:41.083Z,2.30
2022-08-19T18:48:27.240Z,2.17
2022-08-19T18:51:30.195Z,2.30
2022-08-19T18:54:31.830Z,2.13
2022-08-19T18:57:33.527Z,2.20
2022-08-19T19:00:37.445Z,1.90
2022-08-19T19:06:51.845Z,2.40
2022-08-19T19:09:53.338Z,2.20
2022-08-19T19:12:54.863Z,2.00
2022-08-19T19:15:56.891Z,1.88
2022-08-19T19:18:59.070Z,2.10
2022-08-19T19:22:03.161Z,2.10
2022-08-19T19:25:05.205Z,1.90
2022-08-19T19:28:09.932Z,2.03
2022-08-19T19:31:20.121Z,1.85
2022-08-19T19:34:29.814Z,2.25
2022-08-19T19:40:33.036Z,2.00
2022-08-19T19:43:40.938Z,1.60
2022-08-19T19:46:43.384Z,1.75
2022-08-19T19:50:10.774Z,2.05
2022-08-19T19:53:07.411Z,1.77
2022-08-19T19:56:10.104Z,1.80
2022-08-19T19:59:12.022Z,1.80
2022-08-19T20:02:16.669Z,1.92
2022-08-19T20:05:23.370Z,2.08
2022-08-19T20:08:47.627Z,2.05
2022-08-19T20:11:54.884Z,2.20
2022-08-19T20:14:56.333Z,1.95
2022-08-19T20:17:59.364Z,1.75
2022-08-19T20:21:00.837Z,1.73
2022-08-19T20:24:09.019Z,1.90
2022-08-19T20:27:11.442Z,1.90
2022-08-19T20:30:19.491Z,2.10
2022-08-19T20:33:21.293Z,2.00
2022-08-19T20:36:24.501Z,2.00
2022-08-19T20:39:26.034Z,1.98
2022-08-19T20:42:28.328Z,1.95
2022-08-19T20:45:33.075Z,2.03
2022-08-19T20:48:38.286Z,2.00
2022-08-19T20:51:40.098Z,2.15
2022-08-19T20:54:41.647Z,2.03
2022-08-19T20:57:43.115Z,2.40
2022-08-19T21:00:45.999Z,2.10
2022-08-19T21:03:48.396Z,2.45
2022-08-19T21:06:50.676Z,2.15
2022-08-19T21:09:52.475Z,2.50
2022-08-19T21:12:54.816Z,2.70
2022-08-19T21:15:56.318Z,2.10
2022-08-19T21:18:57.925Z,2.38
2022-08-19T21:22:00.724Z,2.50
2022-08-19T21:25:03.251Z,2.38
2022-08-19T21:28:05.768Z,2.10
2022-08-19T21:31:10.279Z,2.10
2022-08-19T21:34:11.924Z,2.25
2022-08-19T21:37:17.587Z,1.95
2022-08-19T21:40:27.246Z,1.90
2022-08-19T21:43:28.741Z,2.10
2022-08-19T21:46:30.296Z,2.25
2022-08-19T21:49:31.958Z,2.33
2022-08-19T21:52:37.438Z,2.00
2022-08-19T21:55:39.329Z,2.30
2022-08-19T21:58:41.362Z,1.92
2022-08-19T22:01:48.231Z,1.90
2022-08-19T22:04:52.991Z,1.88
2022-08-19T22:07:59.772Z,1.65
2022-08-19T22:11:03.528Z,1.77
2022-08-19T22:14:05.598Z,1.80
2022-08-19T22:17:09.345Z,1.88
2022-08-19T22:20:15.683Z,1.75
2022-08-19T22:23:17.181Z,1.90
2022-08-19T22:26:18.773Z,1.55
2022-08-19T22:29:20.265Z,1.70
2022-08-19T22:32:35.946Z,1.67
2022-08-19T22:35:39.981Z,1.70
2022-08-19T22:41:43.221Z,1.77
2022-08-19T22:44:44.663Z,1.80
2022-08-19T22:47:46.172Z,2.10
2022-08-19T22:51:07.750Z,1.70
2022-08-19T22:54:09.539Z,1.83
2022-08-19T22:57:11.348Z,2.00
2022-08-19T23:00:13.647Z,1.67
2022-08-19T23:03:15.181Z,2.00
2022-08-19T23:06:17.382Z,2.00
2022-08-19T23:09:19.703Z,2.10
2022-08-19T23:12:34.406Z,2.38
2022-08-19T23:15:36.259Z,1.70
2022-08-19T23:18:37.863Z,1.98
2022-08-19T23:21:41.270Z,2.08
2022-08-19T23:24:42.674Z,2.00
2022-08-19T23:28:04.392Z,1.90
2022-08-19T23:31:07.218Z,2.30
2022-08-19T23:34:08.696Z,1.92
2022-08-19T23:37:10.156Z,2.38
2022-08-19T23:40:11.723Z,2.20
2022-08-19T23:43:20.388Z,2.10
2022-08-19T23:46:28.119Z,2.17
2022-08-19T23:49:31.254Z,2.58
2022-08-19T23:52:35.244Z,2.05
2022-08-19T23:55:41.033Z,2.00
2022-08-19T23:58:42.482Z,2.03
